Sunday, January 20, 2019, 1:54 AM EST
Back to Local

KPBG, Plattsburgh International Airport

Location: Plattsburgh, NY, United States Lat: 44.65
Local Time: 1:54 AM EST ( 6:54 GMT) Lon: -73.467
Time Zone: US/Eastern Elev: 239 ft

Show me the last for .
Show Coded

Time T Td Feel RH Dir Speed Gust Alt SLP Vis Weather Sky Remarks
2019-01-20 01:19 -6 -11 -21 78 340° 8 - 30.08 - 0 -SN VV011 1-hr Precip Total: 0.02"
2019-01-20 00:53 -6 -11 -20 78 340° 7 - 30.11 30.14 1 -SN VV013 1-hr Precip Total: 0.02"
6-hr Precip Total (1am): 0.03"
6-hr Min Temp (1am): -8.0°F
6-hr Max Temp (1am): -6.0°F
2019-01-20 00:51 -6 -11 -18 76 340° 6 - 30.12 - 1 -SN VV013 1-hr Precip Total: 0.02"
2019-01-19 23:53 -6 -12 -20 74 340° 7 - 30.17 30.19 1 -SN OVC020 1-hr Precip Total: Trace
24-hr Min Temp (12am): -8.0°F
24-hr Max Temp (12am): 16.0°F
2019-01-19 23:37 -7 -12 -24 78 340° 9 - 30.18 - 1 -SN OVC024 1-hr Precip Total: Trace
2019-01-19 23:14 -7 -12 -21 78 360° 7 - 30.19 - 2 -SN OVC026 1-hr Precip Total: Trace
2019-01-19 22:53 -7 -12 -24 78 350° 9 - 30.21 30.23 1 -SN OVC020 1-hr Precip Total: Trace
2019-01-19 21:53 -7 -12 -23 78 10° 8 - 30.24 30.26 1 -SN OVC022 1-hr Precip Total: 0.01"
6-hr Precip Total (10pm): 0.01"
2019-01-19 21:37 -7 -12 -23 78 360° 8 - 30.25 - 1 -SN OVC028 1-hr Precip Total: Trace
2019-01-19 21:30 -7 -13 -25 74 10° 10 - 30.25 - 2 -SN OVC032 1-hr Precip Total: Trace
2019-01-19 20:53 -7 -13 -23 74 10° 8 - 30.27 30.29 5 -SN OVC055 1-hr Precip Total: Trace
2019-01-19 19:53 -7 -12 -20 78 10° 6 - 30.30 30.32 5 -SN OVC050 1-hr Precip Total: Trace
2019-01-19 18:53 -8 -13 -23 77 330° 7 - 30.33 30.35 3 -SN OVC037 1-hr Precip Total: Trace
6-hr Precip Total (7pm): 0.01"
6-hr Min Temp (7pm): -8.0°F
6-hr Max Temp (7pm): -2.9°F
2019-01-19 18:43 -7 -13 -23 74 340° 8 - 30.33 - 2 -SN OVC033 1-hr Precip Total: Trace
2019-01-19 18:12 -7 -12 -21 78 350° 7 - 30.34 - 2 -SN OVC023 1-hr Precip Total: Trace
2019-01-19 17:53 -7 -12 -25 78 360° 10 - 30.35 30.37 1 -SN OVC020 1-hr Precip Total: Trace
2019-01-19 16:53 -6 -11 -24 78 360° 10 - 30.38 30.40 1 -SN OVC018 1-hr Precip Total: 0.01"
2019-01-19 16:51 -6 -11 -23 76 360° 10 - 30.38 - 1 -SN OVC018 1-hr Precip Total: 0.01"
2019-01-19 16:32 -6 -11 -23 78 360° 9 - 30.39 - 0 -SN VV016 1-hr Precip Total: 0.01"
2019-01-19 16:19 -6 -11 -25 78 360° 12 - 30.38 - 0 SN VV015 1-hr Precip Total: 0.01"
2019-01-19 15:53 -5 -11 -22 74 20° 9 - 30.39 30.41 0 SN VV014 1-hr Precip Total: Trace
6-hr Precip Total (4pm): 0.00"
2019-01-19 15:49 -6 -11 -22 76 10° 9 - 30.39 - 0 SN VV014 1-hr Precip Total: Trace
2019-01-19 15:10 -5 -12 -19 71 10° 7 - 30.40 - 0 -SN VV017 1-hr Precip Total: Trace
2019-01-19 15:01 -5 -13 -22 67 10° 9 - 30.39 - 1 -SN VV020 1-hr Precip Total: Trace
2019-01-19 14:53 -5 -14 -23 64 20° 10 - 30.39 30.41 2 -SN OVC025 1-hr Precip Total: Trace
2019-01-19 14:51 -6 -15 -22 63 20° 9 - 30.39 - 3 -SN OVC027 1-hr Precip Total: Trace
2019-01-19 13:53 -5 -16 -22 57 30° 9 - 30.38 30.40 10 OVC070 None
2019-01-19 12:53 -3 -13 -21 60 20° 12 - 30.39 30.41 10 OVC090 6-hr Min Temp (1pm): -2.9°F
6-hr Max Temp (1pm): 1.0°F
2019-01-19 11:53 -2 -13 -19 58 10° 10 - 30.44 30.45 10 BKN100 None
2019-01-19 10:53 -2 -13 -21 58 350° 14 - 30.48 30.49 10 BKN100 None
2019-01-19 09:53 -2 -14 -20 55 20° 12 - 30.48 30.50 10 CLR None
2019-01-19 08:53 -1 -12 -17 58 20° 10 - 30.46 30.48 10 FEW031 SCT120 None
2019-01-19 07:53 -1 -11 -20 61 10° 14 - 30.44 30.46 10 OVC031 None
2019-01-19 06:53 1 -8 -17 64 10° 13 - 30.40 30.42 10 BKN034 6-hr Min Temp (7am): 1.0°F
6-hr Max Temp (7am): 15.1°F
2019-01-19 05:53 3 -8 -16 59 20° 15 - 30.38 30.39 10 BKN049 None
2019-01-19 04:53 6 -7 -14 53 10° 20 - 30.36 30.37 10 BKN050 None
2019-01-19 03:53 9 -1 -9 63 20° 17 - 30.32 30.34 10 OVC050 None
2019-01-19 02:53 12 1 -7 60 360° 21 - 30.31 30.32 10 OVC050 None

Support USWX by starting your Amazon purchase here.